This is the latest recevied weather packets stored in our database for station/object KE5VT. If no packets are shown the sender has not sent any weather packets the latest 10 day(s).
| Time | Temp. | Humidity | Pressure | Rain* | Wind** | Luminosity | Snow |
|---|---|---|---|---|---|---|---|
| 1777820043 | 13.89° C | 52% | 1016.8 hPa | 0 mm | - | 57 W/m² | - |
| 1777819739 | 13.33° C | 52% | 1016.6 hPa | 0 mm | - | 58 W/m² | - |
| 1777819438 | 13.89° C | 51% | 1016.5 hPa | 0 mm | - | 49 W/m² | - |
| 1777819135 | 13.33° C | 54% | 1016.7 hPa | 0 mm | - | 84 W/m² | - |
| 1777818832 | 13.89° C | 54% | 1016.4 hPa | 0 mm | - | 46 W/m² | - |
| 1777818528 | 13.33° C | 53% | 1016.7 hPa | 0 mm | - | 50 W/m² | - |
| 1777818225 | 13.33° C | 53% | 1016.5 hPa | 0 mm | - | 39 W/m² | - |
| 1777817921 | 13.33° C | 53% | 1016.4 hPa | 0 mm | - | 39 W/m² | - |
| 1777817619 | 12.78° C | 50% | 1016.4 hPa | 0 mm | - | 37 W/m² | - |
| 1777817315 | 12.78° C | 52% | 1016.3 hPa | 0 mm | - | 36 W/m² | - |
| 1777817013 | 12.78° C | 51% | 1016.3 hPa | 0 mm | - | 36 W/m² | - |
| 1777816708 | 12.78° C | 55% | 1016.4 hPa | 0 mm | - | 36 W/m² | - |
| 1777816406 | 12.78° C | 55% | 1016.5 hPa | 0 mm | - | 35 W/m² | - |
| 1777816104 | 12.22° C | 58% | 1016.3 hPa | 0 mm | - | 35 W/m² | - |
| 1777815801 | 12.22° C | 58% | 1016.3 hPa | 0 mm | - | 34 W/m² | - |
| 1777815499 | 12.22° C | 59% | 1016.4 hPa | 0 mm | - | 33 W/m² | - |
| 1777815196 | 12.22° C | 58% | 1016.3 hPa | 0 mm | - | 45 W/m² | - |
| 1777814892 | 12.22° C | 60% | 1016.3 hPa | 0 mm | - | 32 W/m² | - |
| 1777814588 | 11.67° C | 66% | 1016.3 hPa | 0 mm | - | 31 W/m² | - |
| 1777814286 | 11.67° C | 62% | 1016.2 hPa | 0 mm | - | 31 W/m² | - |
| 1777813982 | 11.67° C | 66% | 1016.3 hPa | 0 mm | - | 30 W/m² | - |
| 1777813680 | 11.67° C | 65% | 1016.3 hPa | 0 mm | - | 52 W/m² | - |
| 1777813377 | 11.67° C | 68% | 1016.3 hPa | 0 mm | - | 29 W/m² | - |
| 1777813074 | 11.11° C | 69% | 1016.2 hPa | 0 mm | - | 30 W/m² | - |
| 1777812772 | 11.11° C | 71% | 1016.3 hPa | 0 mm | - | 64 W/m² | - |
* Rain latest hour (hover to see other rain measurements)
** Current wind speed in m/s (hover to see current wind gust speed)